首页
METAR-TAF:

METAR-TAF

机场 :

多維爾, 法国

纬度: 49-21-55N, 经度: 000-09-16E, 海拔: 146米

当前天气观测

该预报发布于18分钟前的00:00 UTC
风速10节,风向西北,在西转西南北转东北之间变化
温度 15°C
湿度 100%
气压 1018 hPa
能见度10公里或以上
雷暴

METAR: LFRG 250000Z AUTO 31010KT 250V020 9999 TS BKN003/// BKN024/// OVC072/// ///CB 15/15 Q1018

时间: 02:18 (00:18 UTC)

预报

该预报发布于10小时和18分钟前的14:00 UTC
预报有效从24日的 15点(UTC)到 24日的 24点(UTC)
风速5节,风向多变
能见度10公里或以上
1500米以下无云,无积雨云
短暂存在
从 24日的 15点(UTC)到 24日的 24点(UTC)
能見度: 4000
多云层高于800英尺
多云层高于6000英尺, 积雨云.
阵雨
几率 40% :
短暂存在
从 24日的 19点(UTC)到 24日的 24点(UTC)
风速15节,风向多变,有时为25节阵风
能見度: 2000
多云层高于500英尺
雷暴, 雨, 冰雹

TAF: LFRG 241400Z 2415/2424 VRB05KT CAVOK TEMPO 2415/2424 4000 SHRA BKN008 BKN060CB PROB40 TEMPO 2419/2424 VRB15G25KT 2000 TSRAGR BKN005

超过4000个机场的气象观测和天气预报(METAR&TAF报告)。

可查询的气象台以黄色和红色小点在地图上表示。

将鼠标移到小点上方,可查看气象台名称。

然后点击查看天气观测和预报。

如需切换地图:点击带黑十字的绿色按钮放大地图;点击带横线的绿色按钮缩小地图;或者点击绿色箭头查看邻近地区的地图。


METAR-TAF: